Time;durP1;ratioP1;P1;durP2;ratioP2;P2;SDS_P1;SDS_P2;PMS_P1;PMS_P2;Temp;Humidity;BMP_temperature;BMP_pressure;BME280_temperature;BME280_humidity;BME280_pressure;Samples;Min_cycle;Max_cycle;Signal;HPM_P1;HPM_P2
2024/04/13 00:02:49;;;;;;;;;;;;;;;18.67;49.78;100855.59;11099322;26;1831;-71
2024/04/13 00:07:45;;;;;;;;;;;;;;;18.67;50.08;100852.94;11099498;26;930;-71
2024/04/13 00:12:41;;;;;;;;;;;;;;;18.65;50.13;100852.13;11099308;26;918;-71
2024/04/13 00:17:37;;;;;;;;;;;;;;;18.65;50.00;100849.47;11099148;26;935;-71
2024/04/13 00:22:32;;;;;;;;;;;;;;;18.64;50.17;100845.13;11098907;26;1848;-71
2024/04/13 00:27:28;;;;;;;;;;;;;;;18.64;49.94;100838.97;11099286;26;833;-70
2024/04/13 00:32:24;;;;;;;;;;;;;;;18.64;50.01;100846.91;11099206;26;896;-71
2024/04/13 00:37:21;;;;;;;;;;;;;;;18.62;49.84;100839.00;11098394;26;885;-71
2024/04/13 00:42:19;;;;;;;;;;;;;;;18.62;49.87;100836.38;11098191;26;1825;-71
2024/04/13 00:47:15;;;;;;;;;;;;;;;18.61;50.23;100822.31;11098041;26;895;-71
2024/04/13 00:52:11;;;;;;;;;;;;;;;18.60;49.75;100819.69;11103540;26;970;-71
2024/04/13 00:57:08;;;;;;;;;;;;;;;18.59;49.91;100812.69;11105261;26;813;-71
2024/04/13 01:02:06;;;;;;;;;;;;;;;18.58;50.03;100811.84;11104439;26;1857;-71
2024/04/13 01:07:03;;;;;;;;;;;;;;;18.58;49.99;100805.72;11104341;26;1244;-71
2024/04/13 01:11:59;;;;;;;;;;;;;;;18.57;50.19;100812.72;11104189;26;896;-71
2024/04/13 01:16:55;;;;;;;;;;;;;;;18.56;50.25;100807.53;11104051;26;932;-71
2024/04/13 01:21:51;;;;;;;;;;;;;;;18.56;50.18;100796.97;11104545;26;1826;-71
2024/04/13 01:26:46;;;;;;;;;;;;;;;18.55;50.09;100798.75;11103720;26;874;-71
2024/04/13 01:31:42;;;;;;;;;;;;;;;18.53;50.36;100797.91;11103702;26;914;-71
2024/04/13 01:36:38;;;;;;;;;;;;;;;18.54;49.73;100799.63;11104386;26;855;-71
2024/04/13 01:41:34;;;;;;;;;;;;;;;18.52;50.13;100806.75;11103946;26;1837;-71
2024/04/13 01:46:30;;;;;;;;;;;;;;;18.52;50.42;100798.84;11103090;26;946;-71
2024/04/13 01:51:26;;;;;;;;;;;;;;;18.52;50.25;100800.59;11103694;26;902;-71
2024/04/13 01:56:22;;;;;;;;;;;;;;;18.50;50.03;100794.50;11103138;26;1080;-71
2024/04/13 02:01:18;;;;;;;;;;;;;;;18.50;50.08;100791.88;11102245;26;1839;-71
2024/04/13 02:06:14;;;;;;;;;;;;;;;18.51;50.32;100793.59;11103262;26;893;-71
2024/04/13 02:11:10;;;;;;;;;;;;;;;18.49;50.11;100790.97;11103105;26;843;-71
2024/04/13 02:16:06;;;;;;;;;;;;;;;18.49;50.10;100777.78;11102966;26;849;-71
2024/04/13 02:21:02;;;;;;;;;;;;;;;18.48;50.11;100776.06;11102668;26;1829;-70
2024/04/13 02:25:59;;;;;;;;;;;;;;;18.47;50.03;100771.69;11102668;26;859;-71
2024/04/13 02:30:55;;;;;;;;;;;;;;;18.48;49.96;100767.28;11102828;26;877;-71
2024/04/13 02:35:51;;;;;;;;;;;;;;;18.47;50.11;100766.41;11102390;26;947;-71
2024/04/13 02:40:47;;;;;;;;;;;;;;;18.46;50.08;100767.31;11102801;26;1833;-71
2024/04/13 02:45:43;;;;;;;;;;;;;;;18.45;50.22;100752.41;11102104;26;1018;-71
2024/04/13 02:50:39;;;;;;;;;;;;;;;18.45;50.09;100755.03;11101947;26;853;-71
2024/04/13 02:55:35;;;;;;;;;;;;;;;18.44;50.21;100758.56;11102437;26;926;-71
2024/04/13 03:00:30;;;;;;;;;;;;;;;18.43;50.02;100759.50;11101034;26;1857;-71
2024/04/13 03:05:26;;;;;;;;;;;;;;;18.43;50.00;100740.16;11101654;26;923;-71
2024/04/13 03:10:23;;;;;;;;;;;;;;;18.42;49.95;100744.56;11100760;26;896;-71
2024/04/13 03:15:19;;;;;;;;;;;;;;;18.41;49.95;100740.19;11100066;26;921;-71
2024/04/13 03:20:15;;;;;;;;;;;;;;;18.42;49.92;100741.03;11100465;26;1855;-71
2024/04/13 03:25:11;;;;;;;;;;;;;;;18.39;50.24;100742.91;11100988;26;744;-71
2024/04/13 03:30:07;;;;;;;;;;;;;;;18.40;49.81;100749.88;11100132;26;892;-71
2024/04/13 03:35:04;;;;;;;;;;;;;;;18.39;50.05;100748.16;11100091;26;995;-71
2024/04/13 03:40:00;;;;;;;;;;;;;;;18.37;49.98;100747.34;11099784;26;1837;-71
2024/04/13 03:44:57;;;;;;;;;;;;;;;18.38;50.34;100756.13;11099674;26;923;-71
2024/04/13 03:49:53;;;;;;;;;;;;;;;18.38;50.19;100743.78;11100230;26;911;-71
2024/04/13 03:54:49;;;;;;;;;;;;;;;18.38;50.07;100750.84;11100045;26;806;-71
2024/04/13 03:59:45;;;;;;;;;;;;;;;18.36;50.03;100742.09;11099450;26;1814;-71
2024/04/13 04:04:41;;;;;;;;;;;;;;;18.36;50.13;100748.25;11099634;26;945;-71
2024/04/13 04:09:37;;;;;;;;;;;;;;;18.36;49.85;100750.03;11099503;26;974;-71
2024/04/13 04:14:33;;;;;;;;;;;;;;;18.36;50.33;100753.50;11099263;26;859;-71
2024/04/13 04:19:29;;;;;;;;;;;;;;;18.37;50.17;100757.03;11099647;26;1845;-71
2024/04/13 04:24:24;;;;;;;;;;;;;;;18.38;49.99;100761.41;11101750;26;805;-71
2024/04/13 04:29:20;;;;;;;;;;;;;;;18.37;50.30;100759.69;11106045;26;874;-71
2024/04/13 04:34:16;;;;;;;;;;;;;;;18.38;49.90;100764.03;11105888;26;966;-71
2024/04/13 04:39:12;;;;;;;;;;;;;;;18.40;50.36;100772.78;11105781;26;936;-71
2024/04/13 04:44:08;;;;;;;;;;;;;;;18.40;49.94;100775.44;11106232;26;1830;-71
2024/04/13 04:49:05;;;;;;;;;;;;;;;18.43;49.80;100772.69;11105500;26;928;-71
2024/04/13 04:54:01;;;;;;;;;;;;;;;18.45;49.88;100778.78;11106060;26;921;-71
2024/04/13 04:58:58;;;;;;;;;;;;;;;18.46;49.72;100769.97;11105294;26;824;-71
2024/04/13 05:03:54;;;;;;;;;;;;;;;18.47;49.56;100779.63;11104765;26;1845;-71
2024/04/13 05:08:50;;;;;;;;;;;;;;;18.50;50.02;100771.59;11105020;26;872;-71
2024/04/13 05:13:46;;;;;;;;;;;;;;;18.51;50.03;100772.47;11105433;26;1044;-71
2024/04/13 05:18:41;;;;;;;;;;;;;;;18.54;50.28;100773.22;11104767;26;835;-71
2024/04/13 05:23:37;;;;;;;;;;;;;;;18.54;49.99;100775.00;11104465;26;1830;-71
2024/04/13 05:28:33;;;;;;;;;;;;;;;18.55;50.32;100764.41;11104966;26;891;-75
2024/04/13 05:33:29;;;;;;;;;;;;;;;18.58;49.91;100764.31;11104146;26;890;-72
2024/04/13 05:38:25;;;;;;;;;;;;;;;18.60;49.90;100772.16;11103113;26;1037;-72
2024/04/13 05:43:21;;;;;;;;;;;;;;;18.62;49.92;100771.22;11103943;26;1838;-71
2024/04/13 05:48:19;;;;;;;;;;;;;;;18.64;50.13;100772.97;11103844;26;872;-71
2024/04/13 05:53:15;;;;;;;;;;;;;;;18.66;49.79;100779.06;11103715;26;842;-72
2024/04/13 05:58:10;;;;;;;;;;;;;;;18.65;49.80;100775.53;11104010;26;969;-71
2024/04/13 06:03:07;;;;;;;;;;;;;;;18.65;49.93;100772.91;11102378;26;1837;-71
2024/04/13 06:08:03;;;;;;;;;;;;;;;18.67;49.73;100780.78;11103246;26;984;-70
2024/04/13 06:12:59;;;;;;;;;;;;;;;18.67;49.77;100770.22;11102447;26;957;-71
2024/04/13 06:17:54;;;;;;;;;;;;;;;18.68;49.96;100769.28;11102975;26;887;-70
2024/04/13 06:22:50;;;;;;;;;;;;;;;18.68;49.76;100767.53;11102053;26;1826;-71
2024/04/13 06:27:46;;;;;;;;;;;;;;;18.67;49.99;100767.59;11102034;26;835;-71
2024/04/13 06:32:42;;;;;;;;;;;;;;;18.68;50.39;100764.00;11101886;26;923;-71
2024/04/13 06:37:38;;;;;;;;;;;;;;;18.68;50.11;100775.47;11101628;26;940;-72
2024/04/13 06:42:34;;;;;;;;;;;;;;;18.69;50.05;100765.75;11101559;26;1829;-69
2024/04/13 06:47:30;;;;;;;;;;;;;;;18.70;50.22;100754.28;11102135;26;884;-73
2024/04/13 06:52:26;;;;;;;;;;;;;;;18.71;50.07;100735.75;11102099;26;821;-69
2024/04/13 06:57:21;;;;;;;;;;;;;;;18.73;50.15;100743.63;11101901;26;886;-71
2024/04/13 07:02:17;;;;;;;;;;;;;;;18.73;49.99;100748.91;11101778;26;1830;-71
2024/04/13 07:07:13;;;;;;;;;;;;;;;18.75;50.21;100739.19;11102239;26;1074;-71
2024/04/13 07:12:09;;;;;;;;;;;;;;;18.76;50.26;100738.28;11101415;26;869;-71
2024/04/13 07:17:06;;;;;;;;;;;;;;;18.79;50.03;100738.19;11101910;26;833;-70
2024/04/13 07:22:02;;;;;;;;;;;;;;;18.79;50.07;100735.56;11101050;26;1826;-70
2024/04/13 07:26:58;;;;;;;;;;;;;;;18.80;50.39;100731.97;11101611;26;839;-70
2024/04/13 07:31:54;;;;;;;;;;;;;;;18.81;50.11;100737.22;11100766;26;852;-70
2024/04/13 07:36:50;;;;;;;;;;;;;;;18.82;50.09;100735.44;11101354;26;822;-71
2024/04/13 07:41:46;;;;;;;;;;;;;;;18.83;50.16;100724.81;11100446;26;1834;-75
2024/04/13 07:46:42;;;;;;;;;;;;;;;18.86;50.21;100720.34;11100330;26;833;-80
2024/04/13 07:51:38;;;;;;;;;;;;;;;18.85;49.96;100724.78;11100761;26;942;-76
2024/04/13 07:56:34;;;;;;;;;;;;;;;18.86;49.91;100717.72;11099860;26;1030;-75
2024/04/13 08:01:29;;;;;;;;;;;;;;;18.86;50.11;100721.22;11098668;26;1911;-76
2024/04/13 08:06:25;;;;;;;;;;;;;;;18.89;49.87;100722.88;11100303;26;898;-76
2024/04/13 08:11:21;;;;;;;;;;;;;;;18.89;49.76;100715.84;11099446;26;900;-76
2024/04/13 08:16:17;;;;;;;;;;;;;;;18.89;50.16;100710.56;11099283;26;813;-76
2024/04/13 08:21:13;;;;;;;;;;;;;;;18.90;49.69;100703.50;11099592;26;1852;-76
2024/04/13 08:26:09;;;;;;;;;;;;;;;18.90;50.05;100707.00;11099524;26;957;-76
2024/04/13 08:31:05;;;;;;;;;;;;;;;18.92;50.02;100712.25;11099433;26;802;-76
2024/04/13 08:36:01;;;;;;;;;;;;;;;18.93;49.67;100722.75;11099182;26;1008;-76
2024/04/13 08:40:56;;;;;;;;;;;;;;;18.95;50.04;100710.34;11098342;26;1825;-76
2024/04/13 08:45:52;;;;;;;;;;;;;;;18.95;49.88;100707.72;11098273;26;931;-76
2024/04/13 08:50:49;;;;;;;;;;;;;;;18.97;50.08;100692.69;11098025;26;912;-76
2024/04/13 08:55:45;;;;;;;;;;;;;;;18.96;50.02;100698.88;11097949;26;855;-76
2024/04/13 09:00:41;;;;;;;;;;;;;;;18.96;49.89;100692.72;11097418;26;1818;-76
2024/04/13 09:05:36;;;;;;;;;;;;;;;18.97;49.87;100692.69;11097565;26;868;-76
2024/04/13 09:10:32;;;;;;;;;;;;;;;18.99;49.72;100688.22;11099046;26;833;-76
2024/04/13 09:15:28;;;;;;;;;;;;;;;18.99;49.57;100690.88;11104165;26;944;-76
2024/04/13 09:20:25;;;;;;;;;;;;;;;18.99;49.83;100674.13;11103970;26;1826;-76
2024/04/13 09:25:24;;;;;;;;;;;;;;;19.00;49.89;100670.59;11103905;26;837;-76
2024/04/13 09:30:20;;;;;;;;;;;;;;;19.00;49.79;100674.09;11104323;26;1040;-76
2024/04/13 09:35:17;;;;;;;;;;;;;;;19.01;49.68;100672.31;11103604;26;810;-76
2024/04/13 09:40:13;;;;;;;;;;;;;;;19.02;49.60;100666.09;11103985;26;1818;-76
2024/04/13 09:45:11;;;;;;;;;;;;;;;19.05;49.54;100664.22;11103338;26;1010;-76
2024/04/13 09:50:06;;;;;;;;;;;;;;;19.04;49.66;100651.91;11103154;26;922;-76
2024/04/13 09:55:02;;;;;;;;;;;;;;;19.05;49.86;100637.81;11103632;26;974;-76
2024/04/13 09:59:58;;;;;;;;;;;;;;;19.05;49.62;100636.94;11102713;26;1849;-76
2024/04/13 10:04:54;;;;;;;;;;;;;;;19.05;49.61;100629.00;11103946;26;1031;-76
2024/04/13 10:09:50;;;;;;;;;;;;;;;19.07;49.42;100628.94;11103180;26;860;-76
2024/04/13 10:14:46;;;;;;;;;;;;;;;19.08;49.57;100620.13;11103671;26;1009;-76
2024/04/13 10:19:44;;;;;;;;;;;;;;;19.09;49.59;100617.41;11102834;26;1841;-76
2024/04/13 10:24:40;;;;;;;;;;;;;;;19.09;49.79;100598.06;11102551;26;860;-76
2024/04/13 10:29:43;;;;;;;;;;;;;;;19.09;49.71;100605.97;11118766;26;1172;-76
2024/04/13 10:34:39;;;;;;;;;;;;;;;19.10;49.35;100594.47;11174758;26;869;-76
2024/04/13 10:39:35;;;;;;;;;;;;;;;19.10;49.51;100592.72;11174987;26;1935;-76
2024/04/13 10:44:32;;;;;;;;;;;;;;;19.11;49.63;100580.38;11175274;26;872;-76
2024/04/13 10:49:28;;;;;;;;;;;;;;;19.12;49.56;100564.44;11175153;26;863;-75
2024/04/13 10:54:24;;;;;;;;;;;;;;;19.13;49.49;100567.97;11174736;26;879;-76
2024/04/13 10:59:20;;;;;;;;;;;;;;;19.14;49.52;100554.69;11174090;26;1162;-76
2024/04/13 11:04:16;;;;;;;;;;;;;;;19.15;49.58;100560.81;11174119;26;1829;-76
2024/04/13 11:09:13;;;;;;;;;;;;;;;19.15;49.54;100542.34;11174065;26;832;-74
2024/04/13 11:14:09;;;;;;;;;;;;;;;19.16;49.64;100530.84;11172350;26;1230;-76
2024/04/13 11:19:05;;;;;;;;;;;;;;;19.18;49.47;100526.38;11172434;26;855;-76
2024/04/13 11:24:01;;;;;;;;;;;;;;;19.18;49.42;100527.25;11173980;26;1825;-76
2024/04/13 11:28:56;;;;;;;;;;;;;;;19.19;49.46;100504.31;11173874;26;850;-76
2024/04/13 11:33:52;;;;;;;;;;;;;;;19.20;49.31;100498.09;11173220;26;859;-76
2024/04/13 11:38:48;;;;;;;;;;;;;;;19.21;49.55;100491.91;11174251;26;876;-70
2024/04/13 11:43:44;;;;;;;;;;;;;;;19.24;49.55;100478.56;11173333;26;1825;-71
2024/04/13 11:48:40;;;;;;;;;;;;;;;19.25;49.71;100470.56;11173933;26;809;-71
2024/04/13 11:53:36;;;;;;;;;;;;;;;19.27;49.54;100462.59;11173065;26;886;-71
2024/04/13 11:58:32;;;;;;;;;;;;;;;19.28;49.72;100456.38;11172574;26;926;-71
2024/04/13 12:03:28;;;;;;;;;;;;;;;19.30;49.73;100445.75;11173553;26;1868;-71
2024/04/13 12:08:24;;;;;;;;;;;;;;;19.30;49.86;100441.31;11173574;26;1173;-71
2024/04/13 12:13:20;;;;;;;;;;;;;;;19.32;49.76;100428.06;11173055;26;876;-71
2024/04/13 12:18:16;;;;;;;;;;;;;;;19.33;50.04;100421.84;11172165;26;875;-71
2024/04/13 12:23:16;;;;;;;;;;;;;;;19.35;49.75;100414.72;11171957;26;1845;-71
2024/04/13 12:28:11;;;;;;;;;;;;;;;19.36;49.89;100409.38;11171936;26;814;-71
2024/04/13 12:33:07;;;;;;;;;;;;;;;19.36;49.78;100401.47;11171607;26;1064;-71
2024/04/13 12:38:03;;;;;;;;;;;;;;;19.38;49.81;100404.03;11171451;26;1045;-71
2024/04/13 12:43:00;;;;;;;;;;;;;;;19.39;49.66;100392.53;11171908;26;1852;-71
2024/04/13 12:47:56;;;;;;;;;;;;;;;19.40;49.64;100389.81;11178703;26;927;-72
2024/04/13 12:52:52;;;;;;;;;;;;;;;19.40;49.71;100371.31;11178795;26;804;-71
2024/04/13 12:57:48;;;;;;;;;;;;;;;19.41;49.75;100370.41;11178971;26;907;-72
2024/04/13 13:02:44;;;;;;;;;;;;;;;19.42;49.77;100352.75;11177941;26;1856;-71
2024/04/13 13:07:40;;;;;;;;;;;;;;;19.44;49.97;100349.13;11178005;26;1743;-71
2024/04/13 13:12:36;;;;;;;;;;;;;;;19.45;49.62;100340.28;11177990;26;985;-73
2024/04/13 13:17:32;;;;;;;;;;;;;;;19.47;49.54;100333.16;11177726;26;892;-72
2024/04/13 13:22:27;;;;;;;;;;;;;;;19.47;49.66;100325.22;11178273;26;1873;-72
2024/04/13 13:27:23;;;;;;;;;;;;;;;19.49;49.72;100312.78;11177553;26;946;-71
2024/04/13 13:32:19;;;;;;;;;;;;;;;19.52;49.69;100297.72;11178076;26;859;-71
2024/04/13 13:37:15;;;;;;;;;;;;;;;19.58;49.45;100292.19;11177292;26;830;-71
2024/04/13 13:42:11;;;;;;;;;;;;;;;19.59;49.48;100281.53;11176948;26;1831;-71
2024/04/13 13:47:07;;;;;;;;;;;;;;;19.62;49.24;100280.53;11177602;26;906;-71
2024/04/13 13:52:03;;;;;;;;;;;;;;;19.65;49.31;100261.91;11176773;26;817;-71
2024/04/13 13:56:59;;;;;;;;;;;;;;;19.68;49.39;100260.03;11175712;26;914;-72
2024/04/13 14:01:55;;;;;;;;;;;;;;;19.75;49.38;100247.38;11177024;26;1828;-72
2024/04/13 14:06:51;;;;;;;;;;;;;;;19.79;49.33;100238.38;11176953;26;880;-72
2024/04/13 14:11:47;;;;;;;;;;;;;;;19.83;49.25;100225.88;11176830;26;867;-72
2024/04/13 14:16:43;;;;;;;;;;;;;;;19.85;49.16;100224.03;11177301;26;969;-70
2024/04/13 14:21:39;;;;;;;;;;;;;;;19.85;49.45;100205.50;11177156;26;1872;-70
2024/04/13 14:26:35;;;;;;;;;;;;;;;19.88;49.39;100194.78;11176507;26;885;-70
2024/04/13 14:31:31;;;;;;;;;;;;;;;19.89;49.13;100191.22;11176159;26;812;-69
2024/04/13 14:36:27;;;;;;;;;;;;;;;19.93;49.44;100174.28;11176066;26;907;-69
2024/04/13 14:41:23;;;;;;;;;;;;;;;19.95;49.32;100180.38;11175895;26;1828;-70
2024/04/13 14:46:19;;;;;;;;;;;;;;;20.00;48.87;100170.44;11176525;26;731;-69
2024/04/13 14:51:14;;;;;;;;;;;;;;;20.00;49.06;100164.28;11175634;26;906;-69
2024/04/13 14:56:10;;;;;;;;;;;;;;;20.02;49.14;100162.44;11175496;26;1022;-74
2024/04/13 15:01:06;;;;;;;;;;;;;;;20.09;49.07;100155.91;11175760;26;1852;-69
2024/04/13 15:06:02;;;;;;;;;;;;;;;20.15;48.76;100139.75;11175105;26;865;-69
2024/04/13 15:10:59;;;;;;;;;;;;;;;20.20;49.13;100140.41;11173994;26;909;-69
2024/04/13 15:15:55;;;;;;;;;;;;;;;20.11;49.11;100135.53;11174864;26;862;-69
2024/04/13 15:20:51;;;;;;;;;;;;;;;20.16;48.87;100128.22;11175300;26;1861;-72
2024/04/13 15:25:46;;;;;;;;;;;;;;;20.16;49.05;100122.94;11174303;26;961;-70
2024/04/13 15:30:42;;;;;;;;;;;;;;;20.20;48.73;100123.66;11174379;26;855;-71
2024/04/13 15:35:38;;;;;;;;;;;;;;;20.11;49.26;100112.56;11174362;26;892;-71
2024/04/13 15:40:34;;;;;;;;;;;;;;;20.08;49.26;100106.56;11173926;26;1822;-71
2024/04/13 15:45:30;;;;;;;;;;;;;;;20.03;49.47;100113.88;11173862;26;884;-70
2024/04/13 15:50:26;;;;;;;;;;;;;;;20.00;49.58;100106.94;11174413;26;896;-70
2024/04/13 15:55:22;;;;;;;;;;;;;;;19.97;49.49;100091.19;11173417;26;881;-75
2024/04/13 16:00:20;;;;;;;;;;;;;;;19.95;49.29;100105.44;11172505;26;1853;-71
2024/04/13 16:05:16;;;;;;;;;;;;;;;19.92;49.22;100088.75;11173316;26;896;-70
2024/04/13 16:10:12;;;;;;;;;;;;;;;19.91;49.25;100089.72;11173717;26;1113;-70
2024/04/13 16:15:08;;;;;;;;;;;;;;;19.89;49.28;100091.56;11172925;26;868;-70
2024/04/13 16:20:07;;;;;;;;;;;;;;;19.85;49.33;100073.25;11174969;26;1829;-70
2024/04/13 16:25:03;;;;;;;;;;;;;;;19.85;49.17;100062.66;11179745;26;878;-70
2024/04/13 16:29:59;;;;;;;;;;;;;;;19.83;49.31;100060.09;11179491;26;820;-71
2024/04/13 16:34:55;;;;;;;;;;;;;;;19.81;49.20;100059.31;11179095;26;965;-71
2024/04/13 16:39:51;;;;;;;;;;;;;;;19.79;49.31;100058.53;11178753;26;1830;-70
2024/04/13 16:44:47;;;;;;;;;;;;;;;19.78;49.09;100053.28;11179334;26;1003;-71
2024/04/13 16:49:43;;;;;;;;;;;;;;;19.77;49.30;100041.00;11179262;26;798;-71
2024/04/13 16:54:39;;;;;;;;;;;;;;;19.75;49.47;100035.78;11178513;26;996;-71
2024/04/13 16:59:35;;;;;;;;;;;;;;;19.75;49.41;100041.06;11178740;26;1845;-70
2024/04/13 17:04:33;;;;;;;;;;;;;;;19.73;49.37;100035.00;11178854;26;825;-75
2024/04/13 17:09:30;;;;;;;;;;;;;;;19.71;49.43;100028.94;11178710;26;996;-72
2024/04/13 17:14:25;;;;;;;;;;;;;;;19.72;49.33;100029.78;11178421;26;1000;-71
2024/04/13 17:19:21;;;;;;;;;;;;;;;19.71;49.30;100023.66;11178466;26;936;-71
2024/04/13 17:24:17;;;;;;;;;;;;;;;19.70;49.33;100019.25;11178843;26;1818;-70
2024/04/13 17:29:13;;;;;;;;;;;;;;;19.69;49.26;100012.28;11178720;26;894;-71
2024/04/13 17:34:09;;;;;;;;;;;;;;;19.67;49.22;100014.13;11177354;26;1046;-71
2024/04/13 17:39:05;;;;;;;;;;;;;;;19.65;49.41;100003.59;11178534;26;842;-73
2024/04/13 17:44:02;;;;;;;;;;;;;;;19.65;49.36;99998.31;11177788;26;1851;-73
2024/04/13 17:48:57;;;;;;;;;;;;;;;19.63;49.36;99999.31;11177645;26;833;-73
2024/04/13 17:53:53;;;;;;;;;;;;;;;19.63;49.42;99992.22;11177421;26;897;-73
2024/04/13 17:58:50;;;;;;;;;;;;;;;19.62;49.44;99990.53;11177151;26;1021;-73
2024/04/13 18:03:47;;;;;;;;;;;;;;;19.62;49.32;99987.00;11176913;26;1841;-73
2024/04/13 18:08:43;;;;;;;;;;;;;;;19.61;49.28;99985.31;11176992;26;1224;-73
2024/04/13 18:13:39;;;;;;;;;;;;;;;19.61;49.50;99982.66;11177580;26;888;-71
2024/04/13 18:18:35;;;;;;;;;;;;;;;19.60;49.39;99988.88;11176710;26;843;-73
2024/04/13 18:23:31;;;;;;;;;;;;;;;19.59;49.41;99981.88;11177132;26;1853;-72
2024/04/13 18:28:29;;;;;;;;;;;;;;;19.57;49.47;99987.25;11177678;26;959;-72
2024/04/13 18:33:25;;;;;;;;;;;;;;;19.58;49.42;99988.09;11176246;26;1037;-73
2024/04/13 18:38:22;;;;;;;;;;;;;;;19.56;49.55;99998.72;11176878;26;880;-72
2024/04/13 18:43:17;;;;;;;;;;;;;;;19.57;49.54;100002.22;11175552;26;1822;-72
2024/04/13 18:48:13;;;;;;;;;;;;;;;19.56;49.75;99997.88;11176433;26;950;-72
2024/04/13 18:53:09;;;;;;;;;;;;;;;19.55;49.53;100002.31;11176314;26;852;-73
2024/04/13 18:58:06;;;;;;;;;;;;;;;19.55;49.46;99999.66;11175521;26;824;-72
2024/04/13 19:03:01;;;;;;;;;;;;;;;19.56;49.55;100008.44;11174608;26;1860;-71
2024/04/13 19:07:57;;;;;;;;;;;;;;;19.55;49.65;100001.47;11175341;26;898;-72
2024/04/13 19:12:53;;;;;;;;;;;;;;;19.54;49.85;99994.44;11174405;26;876;-72
2024/04/13 19:17:49;;;;;;;;;;;;;;;19.54;49.63;100005.03;11174280;26;908;-72
2024/04/13 19:22:45;;;;;;;;;;;;;;;19.53;49.69;100008.59;11174776;26;1837;-72
2024/04/13 19:27:41;;;;;;;;;;;;;;;19.54;49.43;100010.31;11174663;26;1032;-72
2024/04/13 19:32:37;;;;;;;;;;;;;;;19.53;49.63;100014.75;11173917;26;1042;-72
2024/04/13 19:37:33;;;;;;;;;;;;;;;19.51;49.56;100010.44;11173693;26;859;-72
2024/04/13 19:42:29;;;;;;;;;;;;;;;19.51;49.64;100013.94;11173444;26;1843;-72
2024/04/13 19:47:24;;;;;;;;;;;;;;;19.52;49.64;100009.50;11174044;26;1025;-72
2024/04/13 19:52:20;;;;;;;;;;;;;;;19.51;49.63;100007.81;11173989;26;882;-72
2024/04/13 19:57:16;;;;;;;;;;;;;;;19.51;49.66;99999.88;11172576;26;902;-72
2024/04/13 20:02:12;;;;;;;;;;;;;;;19.50;49.53;99999.03;11173087;26;1829;-72
2024/04/13 20:07:08;;;;;;;;;;;;;;;19.51;49.79;99989.31;11173966;26;930;-72
2024/04/13 20:12:04;;;;;;;;;;;;;;;19.51;49.63;99994.59;11173053;26;925;-72
2024/04/13 20:22:16;;;;;;;;;;;;;;;19.51;49.72;99989.31;11174490;26;1833;-72
2024/04/13 20:27:12;;;;;;;;;;;;;;;19.51;49.77;99989.31;11172624;26;899;-72
2024/04/13 20:32:08;;;;;;;;;;;;;;;19.50;49.88;99991.09;11172477;26;874;-72
2024/04/13 20:37:04;;;;;;;;;;;;;;;19.50;49.72;99988.44;11172962;26;879;-72
2024/04/13 20:42:00;;;;;;;;;;;;;;;19.49;49.85;99984.97;11171953;26;1819;-72
2024/04/13 20:46:56;;;;;;;;;;;;;;;19.50;49.69;99980.53;11171885;26;905;-72
2024/04/13 20:51:52;;;;;;;;;;;;;;;19.51;49.74;99973.44;11171700;26;1052;-72
2024/04/13 20:56:47;;;;;;;;;;;;;;;19.49;49.72;99969.09;11172246;26;833;-71
2024/04/13 21:01:43;;;;;;;;;;;;;;;19.50;49.65;99967.31;11170929;26;1830;-71
2024/04/13 21:06:39;;;;;;;;;;;;;;;19.50;49.63;99969.94;11173973;26;918;-72
2024/04/13 21:11:38;;;;;;;;;;;;;;;19.51;49.79;99973.44;11178010;26;974;-71
2024/04/13 21:16:35;;;;;;;;;;;;;;;19.50;49.90;99975.22;11177776;26;997;-71
2024/04/13 21:21:31;;;;;;;;;;;;;;;19.49;49.68;99971.75;11178351;26;1826;-71
2024/04/13 21:26:27;;;;;;;;;;;;;;;19.49;49.67;99961.16;11178196;26;936;-72
2024/04/13 21:31:23;;;;;;;;;;;;;;;19.48;49.73;99962.06;11177501;26;914;-72
2024/04/13 21:36:20;;;;;;;;;;;;;;;19.49;49.74;99968.22;11177917;26;833;-71
2024/04/13 21:41:16;;;;;;;;;;;;;;;19.49;49.64;99970.84;11177736;26;1860;-72
2024/04/13 21:46:12;;;;;;;;;;;;;;;19.49;49.53;99966.44;11177629;26;954;-72
2024/04/13 21:51:08;;;;;;;;;;;;;;;19.49;49.80;99968.22;11177212;26;919;-72
2024/04/13 21:56:04;;;;;;;;;;;;;;;19.49;49.70;99971.75;11177980;26;886;-72
2024/04/13 22:01:01;;;;;;;;;;;;;;;19.50;49.87;99954.09;11177274;26;1853;-72
2024/04/13 22:05:57;;;;;;;;;;;;;;;19.49;49.75;99962.91;11177668;26;813;-72
2024/04/13 22:10:54;;;;;;;;;;;;;;;19.49;49.72;99966.44;11177457;26;1010;-72
2024/04/13 22:15:49;;;;;;;;;;;;;;;19.49;49.65;99965.56;11177245;26;851;-72
2024/04/13 22:20:46;;;;;;;;;;;;;;;19.49;49.64;99962.91;11177015;26;1865;-72
2024/04/13 22:25:42;;;;;;;;;;;;;;;19.48;49.68;99962.06;11177737;26;1627;-71
2024/04/13 22:30:38;;;;;;;;;;;;;;;19.51;49.87;99962.88;11176209;26;960;-70
2024/04/13 22:35:34;;;;;;;;;;;;;;;19.50;49.76;99972.59;11176836;26;926;-70
2024/04/13 22:40:29;;;;;;;;;;;;;;;19.49;49.88;99962.91;11175925;26;1830;-70
2024/04/13 22:45:25;;;;;;;;;;;;;;;19.49;49.87;99963.81;11175735;26;875;-70
2024/04/13 22:50:21;;;;;;;;;;;;;;;19.49;49.86;99963.81;11176357;26;1037;-70
2024/04/13 22:55:17;;;;;;;;;;;;;;;19.49;49.77;99963.81;11175600;26;828;-70
2024/04/13 23:00:13;;;;;;;;;;;;;;;19.49;49.71;99966.44;11175923;26;1938;-70
2024/04/13 23:05:09;;;;;;;;;;;;;;;19.48;49.80;99971.78;11175862;26;1027;-70
2024/04/13 23:10:05;;;;;;;;;;;;;;;19.49;49.98;99970.84;11175787;26;820;-70
2024/04/13 23:15:01;;;;;;;;;;;;;;;19.47;49.86;99957.72;11176045;26;795;-70
2024/04/13 23:19:57;;;;;;;;;;;;;;;19.48;49.67;99961.22;11175414;26;1862;-70
2024/04/13 23:24:53;;;;;;;;;;;;;;;19.48;49.73;99967.34;11175327;26;951;-70
2024/04/13 23:29:49;;;;;;;;;;;;;;;19.48;49.63;99964.72;11173638;26;796;-70
2024/04/13 23:34:45;;;;;;;;;;;;;;;19.48;49.79;99966.50;11175053;26;915;-70
2024/04/13 23:39:41;;;;;;;;;;;;;;;19.47;49.79;99960.38;11174835;26;1825;-70
2024/04/13 23:44:37;;;;;;;;;;;;;;;19.47;49.80;99963.00;11175119;26;1118;-70
2024/04/13 23:49:33;;;;;;;;;;;;;;;19.47;49.44;99968.31;11175285;26;843;-70
2024/04/13 23:54:28;;;;;;;;;;;;;;;19.47;49.68;99965.66;11175086;26;916;-70
2024/04/13 23:59:24;;;;;;;;;;;;;;;19.47;49.76;99967.44;11173921;26;1060;-69
